createdAt,value
2018-08-30T00:00:40.975Z,99.90
2018-08-30T00:03:09.485Z,99.90
2018-08-30T00:05:38.009Z,99.90
2018-08-30T00:08:06.538Z,99.90
2018-08-30T00:10:35.121Z,99.90
2018-08-30T00:13:03.702Z,99.90
2018-08-30T00:15:32.226Z,99.90
2018-08-30T00:18:00.757Z,99.90
2018-08-30T00:20:29.303Z,99.90
2018-08-30T00:22:57.836Z,99.90
2018-08-30T00:25:26.371Z,99.90
2018-08-30T00:27:54.916Z,99.90
2018-08-30T00:30:23.544Z,99.90
2018-08-30T00:32:52.088Z,99.90
2018-08-30T00:35:20.650Z,99.90
2018-08-30T00:37:49.212Z,99.90
2018-08-30T00:40:17.765Z,99.90
2018-08-30T00:42:46.306Z,99.90
2018-08-30T00:45:14.818Z,99.90
2018-08-30T00:47:48.239Z,99.90
2018-08-30T00:50:17.081Z,99.90
2018-08-30T00:52:45.625Z,99.90
2018-08-30T00:55:14.991Z,99.90
2018-08-30T00:57:43.938Z,99.90
2018-08-30T01:00:12.493Z,99.90
2018-08-30T01:02:41.037Z,99.90
2018-08-30T01:05:09.590Z,99.90
2018-08-30T01:07:38.201Z,99.90
2018-08-30T01:10:06.808Z,99.90
2018-08-30T01:12:39.596Z,99.90
2018-08-30T01:15:08.102Z,99.90
2018-08-30T01:17:36.631Z,99.90
2018-08-30T01:20:05.180Z,99.90
2018-08-30T01:22:33.677Z,99.90
2018-08-30T01:25:02.260Z,99.90
2018-08-30T01:27:30.935Z,99.90
2018-08-30T01:29:59.457Z,99.90
2018-08-30T01:32:28.063Z,99.90
2018-08-30T01:34:56.628Z,99.90
2018-08-30T01:37:25.171Z,99.90
2018-08-30T01:39:53.707Z,99.90
2018-08-30T01:42:22.344Z,99.90
2018-08-30T01:44:50.857Z,99.90
2018-08-30T01:47:19.389Z,99.90
2018-08-30T01:49:47.990Z,99.90
2018-08-30T01:52:16.526Z,99.90
2018-08-30T01:54:45.060Z,99.90
2018-08-30T01:57:13.570Z,99.90
2018-08-30T01:59:42.101Z,99.90
2018-08-30T02:02:10.715Z,99.90
2018-08-30T02:04:39.318Z,99.90
2018-08-30T02:07:07.863Z,99.90
2018-08-30T02:09:36.344Z,99.90
2018-08-30T02:12:04.926Z,99.90
2018-08-30T02:14:33.506Z,99.90
2018-08-30T02:17:02.057Z,99.90
2018-08-30T02:19:30.629Z,99.90
2018-08-30T02:21:59.282Z,99.90
2018-08-30T02:24:27.818Z,99.90
2018-08-30T02:26:56.362Z,99.90
2018-08-30T02:29:24.912Z,99.90
2018-08-30T02:31:53.422Z,99.90
2018-08-30T02:34:21.942Z,99.90
2018-08-30T02:36:50.465Z,99.90
2018-08-30T02:39:19.048Z,99.90
2018-08-30T02:41:47.602Z,99.90
2018-08-30T02:44:16.155Z,99.90
2018-08-30T02:46:44.700Z,99.90
2018-08-30T02:49:13.268Z,99.90
2018-08-30T02:51:41.760Z,99.90
2018-08-30T02:54:10.339Z,99.90
2018-08-30T02:56:38.864Z,99.90
2018-08-30T02:59:07.405Z,99.90
2018-08-30T03:01:35.994Z,99.90
2018-08-30T03:04:04.607Z,99.90
2018-08-30T03:06:33.196Z,99.90
2018-08-30T03:09:01.755Z,99.90
2018-08-30T03:11:30.345Z,99.90
2018-08-30T03:13:58.894Z,99.90
2018-08-30T03:16:27.411Z,99.90
2018-08-30T03:18:55.993Z,99.90
2018-08-30T03:21:24.502Z,99.90
2018-08-30T03:23:53.073Z,99.90
2018-08-30T03:26:21.610Z,99.90
2018-08-30T03:28:50.095Z,99.90
2018-08-30T03:31:18.590Z,99.90
2018-08-30T03:33:47.107Z,99.90
2018-08-30T03:36:15.635Z,99.90
2018-08-30T03:38:44.151Z,99.90
2018-08-30T03:41:12.667Z,99.90
2018-08-30T03:43:41.237Z,99.90
2018-08-30T03:46:09.818Z,99.90
2018-08-30T03:48:38.368Z,99.90
2018-08-30T03:51:06.978Z,99.90
2018-08-30T03:53:35.566Z,99.90
2018-08-30T03:56:04.050Z,99.90
2018-08-30T03:58:32.574Z,99.90
2018-08-30T04:01:01.110Z,99.90
2018-08-30T04:03:29.664Z,99.90
2018-08-30T04:05:58.204Z,99.90
2018-08-30T04:08:26.804Z,99.90
2018-08-30T04:10:55.303Z,99.90
2018-08-30T04:13:23.857Z,99.90
2018-08-30T04:15:52.370Z,99.90
2018-08-30T04:18:20.884Z,99.90
2018-08-30T04:20:49.442Z,99.90
2018-08-30T04:23:18.010Z,99.90
2018-08-30T04:25:46.560Z,99.90
2018-08-30T04:28:15.129Z,99.90
2018-08-30T04:30:49.438Z,99.90
2018-08-30T04:33:17.991Z,99.90
2018-08-30T04:35:46.550Z,99.90
2018-08-30T04:38:15.102Z,99.90
2018-08-30T04:40:43.669Z,99.90
2018-08-30T04:43:12.206Z,99.90
2018-08-30T04:45:40.705Z,99.90
2018-08-30T04:48:09.254Z,99.90
2018-08-30T04:50:37.855Z,99.90
2018-08-30T04:53:12.825Z,99.90
2018-08-30T04:55:41.452Z,99.90
2018-08-30T04:58:10.352Z,99.90
2018-08-30T05:00:39.013Z,99.90
2018-08-30T05:03:09.491Z,99.90
2018-08-30T05:05:38.205Z,99.90
2018-08-30T05:08:06.836Z,99.90
2018-08-30T05:10:35.400Z,99.90
2018-08-30T05:13:03.929Z,99.90
2018-08-30T05:15:32.443Z,99.90
2018-08-30T05:18:01.179Z,99.90
2018-08-30T05:20:30.249Z,99.90
2018-08-30T05:22:58.791Z,99.90
2018-08-30T05:25:27.354Z,99.90
2018-08-30T05:27:55.856Z,99.90
2018-08-30T05:30:24.417Z,99.90
2018-08-30T05:32:53.278Z,99.90
2018-08-30T05:35:21.777Z,99.90
2018-08-30T05:37:50.399Z,99.90
2018-08-30T05:40:19.349Z,99.90
2018-08-30T05:42:47.938Z,99.90
2018-08-30T05:45:16.436Z,99.90
2018-08-30T05:47:44.953Z,99.90
2018-08-30T05:50:13.498Z,99.90
2018-08-30T05:52:42.050Z,99.90
2018-08-30T05:55:10.641Z,99.90
2018-08-30T05:57:39.146Z,99.90
2018-08-30T06:00:07.675Z,99.90
2018-08-30T06:02:36.276Z,99.90
2018-08-30T06:05:04.838Z,99.90
2018-08-30T06:07:33.535Z,99.90
2018-08-30T06:10:02.026Z,99.90
2018-08-30T06:12:30.585Z,99.90
2018-08-30T06:14:59.114Z,99.90
2018-08-30T06:17:27.639Z,99.90
2018-08-30T06:19:56.136Z,99.90
2018-08-30T06:22:24.663Z,99.90
2018-08-30T06:24:53.203Z,99.90
2018-08-30T06:27:21.729Z,99.90
2018-08-30T06:29:50.240Z,99.90
2018-08-30T06:32:18.843Z,99.90
2018-08-30T06:34:47.523Z,99.90
2018-08-30T06:37:16.026Z,99.90
2018-08-30T06:39:44.547Z,99.90
2018-08-30T06:42:13.048Z,99.90
2018-08-30T06:44:41.610Z,99.90
2018-08-30T06:47:10.163Z,99.90
2018-08-30T06:49:38.680Z,99.90
2018-08-30T06:52:07.233Z,99.90
2018-08-30T06:54:35.877Z,99.90
2018-08-30T06:57:04.994Z,99.90
2018-08-30T06:59:33.530Z,99.90
2018-08-30T07:02:02.084Z,99.90
2018-08-30T07:04:30.644Z,99.90
2018-08-30T07:07:01.924Z,99.90
2018-08-30T07:09:30.472Z,99.90
2018-08-30T07:11:58.990Z,99.90
2018-08-30T07:14:27.645Z,99.90
2018-08-30T07:16:56.129Z,99.90
2018-08-30T07:19:24.618Z,99.90
2018-08-30T07:21:53.219Z,99.90
2018-08-30T07:24:21.818Z,99.90
2018-08-30T07:26:50.285Z,99.90
2018-08-30T07:29:18.882Z,99.90
2018-08-30T07:31:47.424Z,99.90
2018-08-30T07:34:16.003Z,99.90
2018-08-30T07:36:44.515Z,99.90
2018-08-30T07:39:13.673Z,99.90
2018-08-30T07:41:42.185Z,99.90
2018-08-30T07:44:11.561Z,99.90
2018-08-30T07:46:40.062Z,99.90
2018-08-30T07:49:09.469Z,99.90
2018-08-30T07:51:38.046Z,99.90
2018-08-30T07:54:07.543Z,99.90
2018-08-30T07:56:36.077Z,99.90
2018-08-30T07:59:04.632Z,99.90
2018-08-30T08:01:33.312Z,99.90
2018-08-30T08:04:02.019Z,99.90
2018-08-30T08:06:30.592Z,99.90
2018-08-30T08:08:59.181Z,99.90
2018-08-30T08:11:31.608Z,99.90
2018-08-30T08:14:00.188Z,99.90
2018-08-30T08:16:28.726Z,99.90
2018-08-30T08:18:57.210Z,99.90
2018-08-30T08:21:25.718Z,99.90
2018-08-30T08:23:54.298Z,99.90
2018-08-30T08:26:23.066Z,99.90
2018-08-30T08:28:51.812Z,99.90
2018-08-30T08:31:20.407Z,99.90
2018-08-30T08:33:48.923Z,99.90
2018-08-30T08:36:23.942Z,99.90
2018-08-30T08:38:52.486Z,99.90
2018-08-30T08:41:20.991Z,99.90
2018-08-30T08:43:49.534Z,99.90
2018-08-30T08:46:18.079Z,99.90
2018-08-30T08:48:46.558Z,99.90
2018-08-30T08:51:15.174Z,99.90
2018-08-30T08:53:43.728Z,99.90
2018-08-30T08:56:12.169Z,99.90
2018-08-30T08:58:40.759Z,99.90
2018-08-30T09:01:09.179Z,99.90
2018-08-30T09:03:37.681Z,99.90
2018-08-30T09:06:06.337Z,99.90
2018-08-30T09:08:34.904Z,99.90
2018-08-30T09:11:03.413Z,99.90
2018-08-30T09:13:31.973Z,99.90
2018-08-30T09:16:00.496Z,99.90
2018-08-30T09:18:29.100Z,99.90
2018-08-30T09:20:57.577Z,99.90
2018-08-30T09:23:26.146Z,99.90
2018-08-30T09:25:54.678Z,99.90
2018-08-30T09:28:23.204Z,99.90
2018-08-30T09:30:51.847Z,99.90
2018-08-30T09:33:20.408Z,99.90
2018-08-30T09:35:48.920Z,99.90
2018-08-30T09:38:17.515Z,99.90
2018-08-30T09:40:46.015Z,99.90
2018-08-30T09:43:14.551Z,99.90
2018-08-30T09:45:50.614Z,99.90
2018-08-30T09:48:19.161Z,99.90
2018-08-30T09:50:47.649Z,99.90
2018-08-30T09:53:16.243Z,99.90
2018-08-30T09:55:44.850Z,99.90
2018-08-30T09:58:13.424Z,99.90
2018-08-30T10:00:47.341Z,99.90
2018-08-30T10:03:15.853Z,99.90
2018-08-30T10:05:44.370Z,99.90
2018-08-30T10:08:19.574Z,99.90
2018-08-30T10:10:48.140Z,99.90
2018-08-30T10:13:16.736Z,99.90
2018-08-30T10:15:45.290Z,99.90
2018-08-30T10:18:13.811Z,99.90
2018-08-30T10:20:42.328Z,99.90
2018-08-30T10:23:10.851Z,99.90
2018-08-30T10:25:39.429Z,99.90
2018-08-30T10:28:07.982Z,99.90
2018-08-30T10:30:36.513Z,99.90
2018-08-30T10:33:05.336Z,99.90
2018-08-30T10:35:33.843Z,99.90
2018-08-30T10:38:02.371Z,99.90
2018-08-30T10:40:30.928Z,99.90
2018-08-30T10:42:59.612Z,99.90
2018-08-30T10:45:28.174Z,99.90
2018-08-30T10:47:56.705Z,99.90
2018-08-30T10:50:25.219Z,99.90
2018-08-30T10:52:53.821Z,99.70
2018-08-30T10:55:22.300Z,99.90
2018-08-30T10:57:50.808Z,99.80
2018-08-30T11:00:19.395Z,99.40
2018-08-30T11:02:47.978Z,98.70
2018-08-30T11:05:16.520Z,98.80
2018-08-30T11:07:45.047Z,98.70
2018-08-30T11:10:13.628Z,98.60
2018-08-30T11:12:42.199Z,98.40
2018-08-30T11:15:10.524Z,98.30
2018-08-30T11:17:39.029Z,98.00
2018-08-30T11:20:07.571Z,97.80
2018-08-30T11:22:36.110Z,97.90
2018-08-30T11:25:04.657Z,97.60
2018-08-30T11:27:33.167Z,97.00
2018-08-30T11:30:01.701Z,95.70
2018-08-30T11:32:30.253Z,95.90
2018-08-30T11:34:58.790Z,95.60
2018-08-30T11:37:27.396Z,95.20
2018-08-30T11:39:56.009Z,94.60
2018-08-30T11:42:24.671Z,94.50
2018-08-30T11:44:53.161Z,94.30
2018-08-30T11:47:21.681Z,94.90
2018-08-30T11:49:50.242Z,94.80
2018-08-30T11:52:18.826Z,94.80
2018-08-30T11:54:47.306Z,94.80
2018-08-30T11:57:15.806Z,93.60
2018-08-30T11:59:44.355Z,93.80
2018-08-30T12:02:13.136Z,93.70
2018-08-30T12:04:41.654Z,93.30
2018-08-30T12:07:10.229Z,93.50
2018-08-30T12:09:38.778Z,93.20
2018-08-30T12:12:07.387Z,93.00
2018-08-30T12:14:35.957Z,92.90
2018-08-30T12:17:04.541Z,92.40
2018-08-30T12:19:33.073Z,92.10
2018-08-30T12:22:01.615Z,91.40
2018-08-30T12:24:30.142Z,90.50
2018-08-30T12:26:58.714Z,90.00
2018-08-30T12:29:27.271Z,90.10
2018-08-30T12:31:55.844Z,89.60
2018-08-30T12:34:30.757Z,88.80
2018-08-30T12:36:59.271Z,87.90
2018-08-30T12:39:27.808Z,87.90
2018-08-30T12:41:56.347Z,87.20
2018-08-30T12:44:24.869Z,87.30
2018-08-30T12:46:53.478Z,86.60
2018-08-30T12:49:22.020Z,85.80
2018-08-30T12:51:50.670Z,85.30
2018-08-30T12:54:19.158Z,86.40
2018-08-30T12:56:47.790Z,87.20
2018-08-30T12:59:17.234Z,89.40
2018-08-30T13:01:46.447Z,91.00
2018-08-30T13:04:15.100Z,93.70
2018-08-30T13:06:49.775Z,96.20
2018-08-30T13:09:18.376Z,97.50
2018-08-30T13:11:47.015Z,99.70
2018-08-30T13:14:15.555Z,99.90
2018-08-30T13:16:44.426Z,99.90
2018-08-30T13:19:13.113Z,99.90
2018-08-30T13:21:41.683Z,99.90
2018-08-30T13:24:10.484Z,99.90
2018-08-30T13:26:38.983Z,99.90
2018-08-30T13:29:07.502Z,99.90
2018-08-30T13:31:36.322Z,99.90
2018-08-30T13:34:04.835Z,99.90
2018-08-30T13:36:33.214Z,99.90
2018-08-30T13:39:01.990Z,99.90
2018-08-30T13:41:30.356Z,99.90
2018-08-30T13:43:59.740Z,99.90
2018-08-30T13:46:28.457Z,99.90
2018-08-30T13:48:57.021Z,99.90
2018-08-30T13:51:25.350Z,99.90
2018-08-30T13:53:53.861Z,99.90
2018-08-30T13:56:22.737Z,99.90
2018-08-30T13:58:51.327Z,99.90
2018-08-30T14:01:19.976Z,99.90
2018-08-30T14:03:48.207Z,99.10
2018-08-30T14:06:16.842Z,97.80
2018-08-30T14:08:45.517Z,96.20
2018-08-30T14:11:14.102Z,95.80
2018-08-30T14:13:42.648Z,96.00
2018-08-30T14:16:11.515Z,96.70
2018-08-30T14:18:40.088Z,97.20
2018-08-30T14:21:08.605Z,95.50
2018-08-30T14:23:37.153Z,94.30
2018-08-30T14:26:05.739Z,94.30
2018-08-30T14:28:34.320Z,95.90
2018-08-30T14:31:02.954Z,97.10
2018-08-30T14:33:31.505Z,97.80
2018-08-30T14:35:59.999Z,98.20
2018-08-30T14:38:28.741Z,98.20
2018-08-30T14:40:57.447Z,98.20
2018-08-30T14:43:26.327Z,98.30
2018-08-30T14:45:55.535Z,98.00
2018-08-30T14:48:24.235Z,97.10
2018-08-30T14:50:53.212Z,96.70
2018-08-30T14:53:21.902Z,95.40
2018-08-30T14:55:50.412Z,95.50
2018-08-30T14:58:19.086Z,96.00
2018-08-30T15:00:48.891Z,96.30
2018-08-30T15:03:17.389Z,97.00
2018-08-30T15:05:45.960Z,97.80
2018-08-30T15:08:14.523Z,98.40
2018-08-30T15:10:43.056Z,98.80
2018-08-30T15:13:11.597Z,98.90
2018-08-30T15:15:40.310Z,99.20
2018-08-30T15:18:08.736Z,99.20
2018-08-30T15:20:37.307Z,99.30
2018-08-30T15:23:06.225Z,99.30
2018-08-30T15:25:34.680Z,99.60
2018-08-30T15:28:03.253Z,99.70
2018-08-30T15:30:31.824Z,99.70
2018-08-30T15:33:00.367Z,99.80
2018-08-30T15:35:28.969Z,99.90
2018-08-30T15:37:57.501Z,99.90
2018-08-30T15:40:26.469Z,99.90
2018-08-30T15:42:55.113Z,99.90
2018-08-30T15:45:23.740Z,99.90
2018-08-30T15:47:55.256Z,99.90
2018-08-30T15:50:23.808Z,99.90
2018-08-30T15:52:52.327Z,99.90
2018-08-30T15:55:20.921Z,99.90
2018-08-30T15:57:49.572Z,99.90
2018-08-30T16:00:18.050Z,99.90
2018-08-30T16:02:47.207Z,99.90
2018-08-30T16:05:15.985Z,99.90
2018-08-30T16:07:44.550Z,99.90
2018-08-30T16:10:14.392Z,99.90
2018-08-30T16:12:43.260Z,99.90
2018-08-30T16:15:11.811Z,99.90
2018-08-30T16:17:40.358Z,99.70
2018-08-30T16:20:08.978Z,99.50
2018-08-30T16:23:47.480Z,99.40
2018-08-30T16:26:15.997Z,99.10
2018-08-30T16:28:44.537Z,98.80
2018-08-30T16:31:13.269Z,98.60
2018-08-30T16:33:41.736Z,98.40
2018-08-30T16:36:10.262Z,97.60
2018-08-30T16:38:38.807Z,97.60
2018-08-30T16:41:07.593Z,97.30
2018-08-30T16:43:36.284Z,97.20
2018-08-30T16:46:05.009Z,97.40
2018-08-30T16:48:33.620Z,97.20
2018-08-30T16:51:02.886Z,97.10
2018-08-30T16:53:31.605Z,97.10
2018-08-30T16:56:00.230Z,97.00
2018-08-30T16:58:28.879Z,97.00
2018-08-30T17:00:57.519Z,97.40
2018-08-30T17:03:26.220Z,97.70
2018-08-30T17:05:54.903Z,98.00
2018-08-30T17:08:23.617Z,98.20
2018-08-30T17:10:52.215Z,98.20
2018-08-30T17:13:20.830Z,98.00
2018-08-30T17:15:49.479Z,97.80
2018-08-30T17:18:18.147Z,98.10
2018-08-30T17:20:48.904Z,98.30
2018-08-30T17:23:17.570Z,98.50
2018-08-30T17:25:46.307Z,98.70
2018-08-30T17:28:14.850Z,98.90
2018-08-30T17:30:43.761Z,99.00
2018-08-30T17:33:15.484Z,99.50
2018-08-30T17:35:44.673Z,99.70
2018-08-30T17:38:14.404Z,99.90
2018-08-30T17:40:43.024Z,99.90
2018-08-30T17:43:11.633Z,99.90
2018-08-30T17:45:40.226Z,99.90
2018-08-30T17:48:08.866Z,99.90
2018-08-30T17:50:37.507Z,99.90
2018-08-30T17:53:06.060Z,99.90
2018-08-30T17:55:34.671Z,99.90
2018-08-30T18:00:56.463Z,99.90
2018-08-30T18:03:25.060Z,99.90
2018-08-30T18:05:53.606Z,99.90
2018-08-30T18:08:22.121Z,99.90
2018-08-30T18:10:50.741Z,99.90
2018-08-30T18:13:19.172Z,99.90
2018-08-30T18:15:47.675Z,99.90
2018-08-30T18:18:16.347Z,99.90
2018-08-30T18:20:44.802Z,99.90
2018-08-30T18:23:13.330Z,99.90
2018-08-30T18:25:41.876Z,99.90
2018-08-30T18:28:10.483Z,99.90
2018-08-30T18:30:39.043Z,99.90
2018-08-30T18:33:07.589Z,99.90
2018-08-30T18:35:36.154Z,99.90
2018-08-30T18:38:04.715Z,99.90
2018-08-30T18:40:34.266Z,99.90
2018-08-30T18:43:02.838Z,99.90
2018-08-30T18:45:31.475Z,99.90
2018-08-30T18:48:00.059Z,99.90
2018-08-30T18:50:29.694Z,99.90
2018-08-30T18:52:58.287Z,99.90
2018-08-30T18:55:26.862Z,99.90
2018-08-30T18:57:55.445Z,99.90
2018-08-30T19:00:24.048Z,99.90
2018-08-30T19:02:55.426Z,99.90
2018-08-30T19:05:25.075Z,99.90
2018-08-30T19:07:53.940Z,99.90
2018-08-30T19:10:23.150Z,99.90
2018-08-30T19:12:52.119Z,99.90
2018-08-30T19:16:28.684Z,99.90
2018-08-30T19:19:02.543Z,99.90
2018-08-30T19:21:31.426Z,99.90
2018-08-30T19:24:00.082Z,99.90
2018-08-30T19:26:28.728Z,99.90
2018-08-30T19:28:57.430Z,99.90
2018-08-30T19:31:26.334Z,99.90
2018-08-30T19:33:55.214Z,99.90
2018-08-30T19:36:31.492Z,99.90
2018-08-30T19:39:01.237Z,99.90
2018-08-30T19:41:29.980Z,99.90
2018-08-30T19:43:58.512Z,99.90
2018-08-30T19:46:30.116Z,99.90
2018-08-30T19:48:58.700Z,99.90
2018-08-30T19:51:27.340Z,99.90
2018-08-30T19:53:56.029Z,99.90
2018-08-30T19:56:24.694Z,99.90
2018-08-30T19:58:53.424Z,99.90
2018-08-30T20:01:22.040Z,99.90
2018-08-30T20:03:50.546Z,99.90
2018-08-30T20:06:19.166Z,99.90
2018-08-30T20:08:47.938Z,99.90
2018-08-30T20:11:16.633Z,99.90
2018-08-30T20:13:45.292Z,99.90
2018-08-30T20:16:13.947Z,99.90
2018-08-30T20:18:42.477Z,99.90
2018-08-30T20:21:11.066Z,99.90
2018-08-30T20:23:39.567Z,99.90
2018-08-30T20:26:08.143Z,99.90
2018-08-30T20:28:36.688Z,99.90
2018-08-30T20:31:05.217Z,99.90
2018-08-30T20:33:33.766Z,99.90
2018-08-30T20:36:02.252Z,99.90
2018-08-30T20:38:30.776Z,99.90
2018-08-30T20:40:59.375Z,99.90
2018-08-30T20:43:27.978Z,99.90
2018-08-30T20:45:56.595Z,99.90
2018-08-30T20:48:25.120Z,99.90
2018-08-30T20:50:53.771Z,99.90
2018-08-30T20:53:22.334Z,99.90
2018-08-30T20:55:50.947Z,99.90
2018-08-30T20:58:19.520Z,99.90
2018-08-30T21:00:48.284Z,99.90
2018-08-30T21:03:16.820Z,99.90
2018-08-30T21:05:45.527Z,99.90
2018-08-30T21:08:21.468Z,99.90
2018-08-30T21:10:50.085Z,99.90
2018-08-30T21:13:18.703Z,99.90
2018-08-30T21:15:47.323Z,99.90
2018-08-30T21:18:15.905Z,99.90
2018-08-30T21:20:44.434Z,99.90
2018-08-30T21:23:13.056Z,99.90
2018-08-30T21:25:41.604Z,99.90
2018-08-30T21:28:10.100Z,99.90
2018-08-30T21:30:38.639Z,99.90
2018-08-30T21:33:07.462Z,99.90
2018-08-30T21:35:36.060Z,99.90
2018-08-30T21:38:04.988Z,99.90
2018-08-30T21:40:33.519Z,99.90
2018-08-30T21:43:02.105Z,99.90
2018-08-30T21:45:30.597Z,99.90
2018-08-30T21:47:59.135Z,99.90
2018-08-30T21:50:27.678Z,99.90
2018-08-30T21:52:56.227Z,99.90
2018-08-30T21:55:25.078Z,99.90
2018-08-30T21:57:53.693Z,99.90
2018-08-30T22:00:22.257Z,99.90
2018-08-30T22:02:50.890Z,99.90
2018-08-30T22:05:19.366Z,99.90
2018-08-30T22:07:47.947Z,99.90
2018-08-30T22:10:16.474Z,99.90
2018-08-30T22:12:45.034Z,99.90
2018-08-30T22:15:13.506Z,99.90
2018-08-30T22:17:42.951Z,99.90
2018-08-30T22:20:11.454Z,99.90
2018-08-30T22:22:40.001Z,99.90
2018-08-30T22:25:08.554Z,99.90
2018-08-30T22:27:37.161Z,99.90
2018-08-30T22:30:08.635Z,99.90
2018-08-30T22:32:37.135Z,99.90
2018-08-30T22:35:05.776Z,99.90
2018-08-30T22:37:35.285Z,99.90
2018-08-30T22:40:03.875Z,99.90
2018-08-30T22:42:32.491Z,99.90
2018-08-30T22:45:01.351Z,99.90
2018-08-30T22:47:29.856Z,99.90
2018-08-30T22:49:58.398Z,99.90
2018-08-30T22:52:27.022Z,99.90
2018-08-30T22:54:55.685Z,99.90
2018-08-30T22:57:24.169Z,99.90
2018-08-30T22:59:52.682Z,99.90
2018-08-30T23:02:21.173Z,99.90
2018-08-30T23:04:49.716Z,99.90
2018-08-30T23:07:18.235Z,99.90
2018-08-30T23:09:46.751Z,99.90
2018-08-30T23:12:15.255Z,99.90
2018-08-30T23:14:44.310Z,99.90
2018-08-30T23:17:12.804Z,99.90
2018-08-30T23:19:41.403Z,99.90
2018-08-30T23:22:09.988Z,99.90
2018-08-30T23:24:38.502Z,99.90
2018-08-30T23:27:07.081Z,99.90
2018-08-30T23:29:35.637Z,99.90
2018-08-30T23:32:04.162Z,99.90
2018-08-30T23:34:32.638Z,99.90
2018-08-30T23:37:01.270Z,99.90
2018-08-30T23:39:29.782Z,99.90
2018-08-30T23:41:58.253Z,99.90
2018-08-30T23:44:26.735Z,99.90
2018-08-30T23:46:55.279Z,99.90
2018-08-30T23:49:23.792Z,99.90
2018-08-30T23:51:52.309Z,99.90
2018-08-30T23:54:20.811Z,99.90
2018-08-30T23:56:49.364Z,99.90
2018-08-30T23:59:29.023Z,99.90
